sensor_id;sensor_type;location;lat;lon;timestamp;P1;durP1;ratioP1;P2;durP2;ratioP2
13408;SDS011;6775;49.574;11.170;2023-04-01T00:02:04;2.03;;;0.87;;
13408;SDS011;6775;49.574;11.170;2023-04-01T00:04:32;2.57;;;0.67;;
13408;SDS011;6775;49.574;11.170;2023-04-01T00:07:00;3.10;;;0.57;;
13408;SDS011;6775;49.574;11.170;2023-04-01T00:09:28;1.67;;;0.73;;
13408;SDS011;6775;49.574;11.170;2023-04-01T00:11:56;2.47;;;0.97;;
13408;SDS011;6775;49.574;11.170;2023-04-01T00:14:23;4.20;;;0.90;;
13408;SDS011;6775;49.574;11.170;2023-04-01T00:16:53;2.17;;;0.57;;
13408;SDS011;6775;49.574;11.170;2023-04-01T00:19:20;1.97;;;0.60;;
13408;SDS011;6775;49.574;11.170;2023-04-01T00:21:48;0.70;;;0.67;;
13408;SDS011;6775;49.574;11.170;2023-04-01T00:24:16;1.63;;;0.80;;
13408;SDS011;6775;49.574;11.170;2023-04-01T00:26:45;1.70;;;0.90;;
13408;SDS011;6775;49.574;11.170;2023-04-01T00:29:13;1.33;;;0.70;;
13408;SDS011;6775;49.574;11.170;2023-04-01T00:31:41;1.07;;;0.60;;
13408;SDS011;6775;49.574;11.170;2023-04-01T00:34:11;0.63;;;0.50;;
13408;SDS011;6775;49.574;11.170;2023-04-01T00:36:39;2.00;;;0.80;;
13408;SDS011;6775;49.574;11.170;2023-04-01T00:39:07;1.53;;;0.60;;
13408;SDS011;6775;49.574;11.170;2023-04-01T00:41:35;1.17;;;0.53;;
13408;SDS011;6775;49.574;11.170;2023-04-01T00:44:14;3.27;;;0.93;;
13408;SDS011;6775;49.574;11.170;2023-04-01T00:46:44;3.50;;;0.87;;
13408;SDS011;6775;49.574;11.170;2023-04-01T00:49:14;2.93;;;0.80;;
13408;SDS011;6775;49.574;11.170;2023-04-01T00:51:44;1.80;;;0.90;;
13408;SDS011;6775;49.574;11.170;2023-04-01T00:54:16;2.87;;;0.93;;
13408;SDS011;6775;49.574;11.170;2023-04-01T00:56:46;1.90;;;1.10;;
13408;SDS011;6775;49.574;11.170;2023-04-01T00:59:22;3.17;;;1.00;;
13408;SDS011;6775;49.574;11.170;2023-04-01T01:01:51;4.03;;;1.07;;
13408;SDS011;6775;49.574;11.170;2023-04-01T01:04:22;3.43;;;0.80;;
13408;SDS011;6775;49.574;11.170;2023-04-01T01:06:54;2.73;;;0.70;;
13408;SDS011;6775;49.574;11.170;2023-04-01T01:12:20;2.13;;;0.80;;
13408;SDS011;6775;49.574;11.170;2023-04-01T01:14:53;3.17;;;1.33;;
13408;SDS011;6775;49.574;11.170;2023-04-01T01:17:30;3.73;;;0.83;;
13408;SDS011;6775;49.574;11.170;2023-04-01T01:20:17;3.70;;;1.50;;
13408;SDS011;6775;49.574;11.170;2023-04-01T01:23:23;4.20;;;1.60;;
13408;SDS011;6775;49.574;11.170;2023-04-01T01:26:15;3.90;;;1.10;;
13408;SDS011;6775;49.574;11.170;2023-04-01T01:29:01;2.57;;;0.97;;
13408;SDS011;6775;49.574;11.170;2023-04-01T01:31:40;2.57;;;1.13;;
13408;SDS011;6775;49.574;11.170;2023-04-01T01:34:15;1.50;;;0.70;;
13408;SDS011;6775;49.574;11.170;2023-04-01T01:36:50;1.37;;;0.90;;
13408;SDS011;6775;49.574;11.170;2023-04-01T01:39:22;4.00;;;1.20;;
13408;SDS011;6775;49.574;11.170;2023-04-01T01:41:54;3.93;;;0.90;;
13408;SDS011;6775;49.574;11.170;2023-04-01T01:44:24;3.47;;;0.80;;
13408;SDS011;6775;49.574;11.170;2023-04-01T01:46:54;2.93;;;0.90;;
13408;SDS011;6775;49.574;11.170;2023-04-01T01:49:23;5.80;;;1.17;;
13408;SDS011;6775;49.574;11.170;2023-04-01T01:51:53;2.07;;;0.97;;
13408;SDS011;6775;49.574;11.170;2023-04-01T01:54:21;1.70;;;0.80;;
13408;SDS011;6775;49.574;11.170;2023-04-01T01:56:50;3.43;;;1.10;;
13408;SDS011;6775;49.574;11.170;2023-04-01T01:59:28;3.60;;;0.73;;
13408;SDS011;6775;49.574;11.170;2023-04-01T02:01:57;2.87;;;0.70;;
13408;SDS011;6775;49.574;11.170;2023-04-01T02:04:26;2.00;;;0.70;;
13408;SDS011;6775;49.574;11.170;2023-04-01T02:06:56;3.07;;;0.90;;
13408;SDS011;6775;49.574;11.170;2023-04-01T02:09:29;3.47;;;0.73;;
13408;SDS011;6775;49.574;11.170;2023-04-01T02:11:57;1.53;;;0.53;;
13408;SDS011;6775;49.574;11.170;2023-04-01T02:14:29;1.33;;;0.70;;
13408;SDS011;6775;49.574;11.170;2023-04-01T02:17:03;2.03;;;0.90;;
13408;SDS011;6775;49.574;11.170;2023-04-01T02:19:36;2.57;;;0.67;;
13408;SDS011;6775;49.574;11.170;2023-04-01T02:22:09;1.30;;;0.60;;
13408;SDS011;6775;49.574;11.170;2023-04-01T02:24:41;1.67;;;0.50;;
13408;SDS011;6775;49.574;11.170;2023-04-01T02:27:11;1.53;;;0.50;;
13408;SDS011;6775;49.574;11.170;2023-04-01T02:29:39;1.90;;;0.57;;
13408;SDS011;6775;49.574;11.170;2023-04-01T02:32:07;1.00;;;0.47;;
13408;SDS011;6775;49.574;11.170;2023-04-01T02:34:37;2.23;;;0.80;;
13408;SDS011;6775;49.574;11.170;2023-04-01T02:37:05;0.97;;;0.63;;
13408;SDS011;6775;49.574;11.170;2023-04-01T02:39:34;1.27;;;0.60;;
13408;SDS011;6775;49.574;11.170;2023-04-01T02:42:02;1.33;;;0.70;;
13408;SDS011;6775;49.574;11.170;2023-04-01T02:44:30;2.00;;;0.60;;
13408;SDS011;6775;49.574;11.170;2023-04-01T02:46:58;1.47;;;0.83;;
13408;SDS011;6775;49.574;11.170;2023-04-01T02:49:26;2.40;;;0.83;;
13408;SDS011;6775;49.574;11.170;2023-04-01T02:51:54;1.50;;;0.60;;
13408;SDS011;6775;49.574;11.170;2023-04-01T02:54:21;0.77;;;0.53;;
13408;SDS011;6775;49.574;11.170;2023-04-01T02:56:50;0.77;;;0.40;;
13408;SDS011;6775;49.574;11.170;2023-04-01T02:59:19;0.87;;;0.60;;
13408;SDS011;6775;49.574;11.170;2023-04-01T03:01:46;0.83;;;0.53;;
13408;SDS011;6775;49.574;11.170;2023-04-01T03:04:14;1.70;;;0.57;;
13408;SDS011;6775;49.574;11.170;2023-04-01T03:06:42;2.27;;;0.73;;
13408;SDS011;6775;49.574;11.170;2023-04-01T03:09:10;0.53;;;0.43;;
13408;SDS011;6775;49.574;11.170;2023-04-01T03:11:37;0.77;;;0.43;;
13408;SDS011;6775;49.574;11.170;2023-04-01T03:14:08;1.40;;;0.70;;
13408;SDS011;6775;49.574;11.170;2023-04-01T03:16:36;1.53;;;0.50;;
13408;SDS011;6775;49.574;11.170;2023-04-01T03:19:04;1.50;;;0.50;;
13408;SDS011;6775;49.574;11.170;2023-04-01T03:21:31;2.40;;;0.57;;
13408;SDS011;6775;49.574;11.170;2023-04-01T03:23:59;2.37;;;0.70;;
13408;SDS011;6775;49.574;11.170;2023-04-01T03:26:27;0.93;;;0.60;;
13408;SDS011;6775;49.574;11.170;2023-04-01T03:28:55;1.23;;;0.60;;
13408;SDS011;6775;49.574;11.170;2023-04-01T03:31:24;0.77;;;0.43;;
13408;SDS011;6775;49.574;11.170;2023-04-01T03:33:52;3.50;;;0.63;;
13408;SDS011;6775;49.574;11.170;2023-04-01T03:36:20;1.03;;;0.70;;
13408;SDS011;6775;49.574;11.170;2023-04-01T03:38:48;1.90;;;0.67;;
13408;SDS011;6775;49.574;11.170;2023-04-01T03:41:16;1.23;;;0.60;;
13408;SDS011;6775;49.574;11.170;2023-04-01T03:43:44;3.20;;;0.70;;
13408;SDS011;6775;49.574;11.170;2023-04-01T03:46:16;2.70;;;0.80;;
13408;SDS011;6775;49.574;11.170;2023-04-01T03:48:46;2.27;;;0.57;;
13408;SDS011;6775;49.574;11.170;2023-04-01T03:51:14;1.60;;;0.50;;
13408;SDS011;6775;49.574;11.170;2023-04-01T03:53:42;1.03;;;0.40;;
13408;SDS011;6775;49.574;11.170;2023-04-01T03:56:09;0.63;;;0.40;;
13408;SDS011;6775;49.574;11.170;2023-04-01T03:58:38;1.97;;;0.60;;
13408;SDS011;6775;49.574;11.170;2023-04-01T04:01:13;0.70;;;0.40;;
13408;SDS011;6775;49.574;11.170;2023-04-01T04:03:41;1.47;;;0.60;;
13408;SDS011;6775;49.574;11.170;2023-04-01T04:06:12;0.70;;;0.40;;
13408;SDS011;6775;49.574;11.170;2023-04-01T04:08:41;1.43;;;0.47;;
13408;SDS011;6775;49.574;11.170;2023-04-01T04:11:09;0.93;;;0.57;;
13408;SDS011;6775;49.574;11.170;2023-04-01T04:13:37;0.80;;;0.30;;
13408;SDS011;6775;49.574;11.170;2023-04-01T04:16:05;0.70;;;0.40;;
13408;SDS011;6775;49.574;11.170;2023-04-01T04:18:34;2.37;;;0.50;;
13408;SDS011;6775;49.574;11.170;2023-04-01T04:21:02;1.23;;;0.53;;
13408;SDS011;6775;49.574;11.170;2023-04-01T04:23:32;1.83;;;0.60;;
13408;SDS011;6775;49.574;11.170;2023-04-01T04:26:02;0.60;;;0.33;;
13408;SDS011;6775;49.574;11.170;2023-04-01T04:28:31;1.50;;;0.50;;
13408;SDS011;6775;49.574;11.170;2023-04-01T04:31:00;2.30;;;0.60;;
13408;SDS011;6775;49.574;11.170;2023-04-01T04:33:31;2.23;;;0.40;;
13408;SDS011;6775;49.574;11.170;2023-04-01T04:35:59;1.10;;;0.50;;
13408;SDS011;6775;49.574;11.170;2023-04-01T04:38:30;1.50;;;0.50;;
13408;SDS011;6775;49.574;11.170;2023-04-01T04:40:59;0.87;;;0.50;;
13408;SDS011;6775;49.574;11.170;2023-04-01T04:43:27;2.50;;;0.60;;
13408;SDS011;6775;49.574;11.170;2023-04-01T04:45:54;2.73;;;0.60;;
13408;SDS011;6775;49.574;11.170;2023-04-01T04:48:22;2.50;;;0.50;;
13408;SDS011;6775;49.574;11.170;2023-04-01T04:50:50;1.40;;;0.50;;
13408;SDS011;6775;49.574;11.170;2023-04-01T04:53:18;0.50;;;0.40;;
13408;SDS011;6775;49.574;11.170;2023-04-01T04:55:47;1.23;;;0.63;;
13408;SDS011;6775;49.574;11.170;2023-04-01T04:58:17;0.60;;;0.40;;
13408;SDS011;6775;49.574;11.170;2023-04-01T05:00:45;1.37;;;0.50;;
13408;SDS011;6775;49.574;11.170;2023-04-01T05:03:13;0.63;;;0.40;;
13408;SDS011;6775;49.574;11.170;2023-04-01T05:05:47;0.90;;;0.63;;
13408;SDS011;6775;49.574;11.170;2023-04-01T05:08:16;1.50;;;0.50;;
13408;SDS011;6775;49.574;11.170;2023-04-01T05:10:44;1.03;;;0.43;;
13408;SDS011;6775;49.574;11.170;2023-04-01T05:13:12;1.07;;;0.57;;
13408;SDS011;6775;49.574;11.170;2023-04-01T05:15:41;3.20;;;0.60;;
13408;SDS011;6775;49.574;11.170;2023-04-01T05:18:09;0.97;;;0.40;;
13408;SDS011;6775;49.574;11.170;2023-04-01T05:20:37;1.83;;;0.50;;
13408;SDS011;6775;49.574;11.170;2023-04-01T05:23:05;1.60;;;0.40;;
13408;SDS011;6775;49.574;11.170;2023-04-01T05:25:33;0.40;;;0.30;;
13408;SDS011;6775;49.574;11.170;2023-04-01T05:28:01;1.17;;;0.43;;
13408;SDS011;6775;49.574;11.170;2023-04-01T05:30:28;1.70;;;0.40;;
13408;SDS011;6775;49.574;11.170;2023-04-01T05:32:58;1.10;;;0.40;;
13408;SDS011;6775;49.574;11.170;2023-04-01T05:35:25;2.03;;;0.60;;
13408;SDS011;6775;49.574;11.170;2023-04-01T05:37:53;0.83;;;0.30;;
13408;SDS011;6775;49.574;11.170;2023-04-01T05:40:21;0.90;;;0.40;;
13408;SDS011;6775;49.574;11.170;2023-04-01T05:42:49;0.80;;;0.47;;
13408;SDS011;6775;49.574;11.170;2023-04-01T05:45:17;0.43;;;0.30;;
13408;SDS011;6775;49.574;11.170;2023-04-01T05:47:45;1.77;;;0.40;;
13408;SDS011;6775;49.574;11.170;2023-04-01T05:50:14;0.90;;;0.47;;
13408;SDS011;6775;49.574;11.170;2023-04-01T05:52:42;0.53;;;0.33;;
13408;SDS011;6775;49.574;11.170;2023-04-01T05:55:10;1.57;;;0.30;;
13408;SDS011;6775;49.574;11.170;2023-04-01T05:57:38;1.27;;;0.50;;
13408;SDS011;6775;49.574;11.170;2023-04-01T06:00:06;2.23;;;0.47;;
13408;SDS011;6775;49.574;11.170;2023-04-01T06:02:35;0.83;;;0.40;;
13408;SDS011;6775;49.574;11.170;2023-04-01T06:05:11;1.33;;;0.60;;
13408;SDS011;6775;49.574;11.170;2023-04-01T06:07:42;1.70;;;0.40;;
13408;SDS011;6775;49.574;11.170;2023-04-01T06:10:12;1.67;;;0.30;;
13408;SDS011;6775;49.574;11.170;2023-04-01T06:12:49;2.43;;;0.40;;
13408;SDS011;6775;49.574;11.170;2023-04-01T06:15:24;1.30;;;0.60;;
13408;SDS011;6775;49.574;11.170;2023-04-01T06:21:03;1.77;;;0.40;;
13408;SDS011;6775;49.574;11.170;2023-04-01T06:23:45;0.83;;;0.30;;
13408;SDS011;6775;49.574;11.170;2023-04-01T06:26:27;0.73;;;0.40;;
13408;SDS011;6775;49.574;11.170;2023-04-01T06:35:23;0.20;;;0.20;;
13408;SDS011;6775;49.574;11.170;2023-04-01T06:38:12;1.53;;;0.30;;
13408;SDS011;6775;49.574;11.170;2023-04-01T06:40:56;2.27;;;0.50;;
13408;SDS011;6775;49.574;11.170;2023-04-01T06:43:49;0.60;;;0.40;;
13408;SDS011;6775;49.574;11.170;2023-04-01T06:46:27;0.20;;;0.20;;
13408;SDS011;6775;49.574;11.170;2023-04-01T06:49:07;1.03;;;0.30;;
13408;SDS011;6775;49.574;11.170;2023-04-01T06:51:50;0.40;;;0.30;;
13408;SDS011;6775;49.574;11.170;2023-04-01T06:54:28;0.60;;;0.40;;
13408;SDS011;6775;49.574;11.170;2023-04-01T06:57:00;0.50;;;0.40;;
13408;SDS011;6775;49.574;11.170;2023-04-01T06:59:32;0.60;;;0.37;;
13408;SDS011;6775;49.574;11.170;2023-04-01T07:02:04;0.40;;;0.27;;
13408;SDS011;6775;49.574;11.170;2023-04-01T07:04:43;1.07;;;0.40;;
13408;SDS011;6775;49.574;11.170;2023-04-01T07:07:14;0.37;;;0.30;;
13408;SDS011;6775;49.574;11.170;2023-04-01T07:09:50;0.63;;;0.30;;
13408;SDS011;6775;49.574;11.170;2023-04-01T07:12:23;1.47;;;0.27;;
13408;SDS011;6775;49.574;11.170;2023-04-01T07:15:01;0.60;;;0.30;;
13408;SDS011;6775;49.574;11.170;2023-04-01T07:17:37;0.70;;;0.40;;
13408;SDS011;6775;49.574;11.170;2023-04-01T07:20:11;1.33;;;0.40;;
13408;SDS011;6775;49.574;11.170;2023-04-01T07:22:47;1.33;;;0.50;;
13408;SDS011;6775;49.574;11.170;2023-04-01T07:25:20;0.50;;;0.20;;
13408;SDS011;6775;49.574;11.170;2023-04-01T07:27:52;0.30;;;0.30;;
13408;SDS011;6775;49.574;11.170;2023-04-01T07:30:23;0.50;;;0.30;;
13408;SDS011;6775;49.574;11.170;2023-04-01T07:32:56;0.20;;;0.20;;
13408;SDS011;6775;49.574;11.170;2023-04-01T07:35:31;1.80;;;0.50;;
13408;SDS011;6775;49.574;11.170;2023-04-01T07:38:09;1.33;;;0.40;;
13408;SDS011;6775;49.574;11.170;2023-04-01T07:40:47;1.17;;;0.30;;
13408;SDS011;6775;49.574;11.170;2023-04-01T07:43:28;0.47;;;0.30;;
13408;SDS011;6775;49.574;11.170;2023-04-01T07:46:08;0.93;;;0.30;;
13408;SDS011;6775;49.574;11.170;2023-04-01T07:48:45;0.90;;;0.40;;
13408;SDS011;6775;49.574;11.170;2023-04-01T07:51:19;1.50;;;0.50;;
13408;SDS011;6775;49.574;11.170;2023-04-01T07:53:53;0.47;;;0.20;;
13408;SDS011;6775;49.574;11.170;2023-04-01T07:56:32;0.53;;;0.30;;
13408;SDS011;6775;49.574;11.170;2023-04-01T07:59:08;0.37;;;0.20;;
13408;SDS011;6775;49.574;11.170;2023-04-01T08:01:45;1.50;;;0.40;;
13408;SDS011;6775;49.574;11.170;2023-04-01T08:04:19;0.50;;;0.27;;
13408;SDS011;6775;49.574;11.170;2023-04-01T08:06:57;0.37;;;0.30;;
13408;SDS011;6775;49.574;11.170;2023-04-01T08:09:34;0.30;;;0.20;;
13408;SDS011;6775;49.574;11.170;2023-04-01T08:12:13;0.93;;;0.33;;
13408;SDS011;6775;49.574;11.170;2023-04-01T08:14:52;0.30;;;0.20;;
13408;SDS011;6775;49.574;11.170;2023-04-01T08:17:28;0.30;;;0.30;;
13408;SDS011;6775;49.574;11.170;2023-04-01T08:20:08;0.30;;;0.30;;
13408;SDS011;6775;49.574;11.170;2023-04-01T08:22:42;0.73;;;0.40;;
13408;SDS011;6775;49.574;11.170;2023-04-01T08:25:13;0.30;;;0.30;;
13408;SDS011;6775;49.574;11.170;2023-04-01T08:27:48;1.13;;;0.40;;
13408;SDS011;6775;49.574;11.170;2023-04-01T08:30:21;1.43;;;0.50;;
13408;SDS011;6775;49.574;11.170;2023-04-01T08:32:53;0.97;;;0.40;;
13408;SDS011;6775;49.574;11.170;2023-04-01T08:35:26;0.47;;;0.33;;
13408;SDS011;6775;49.574;11.170;2023-04-01T08:37:59;1.23;;;0.63;;
13408;SDS011;6775;49.574;11.170;2023-04-01T08:40:36;0.30;;;0.30;;
13408;SDS011;6775;49.574;11.170;2023-04-01T08:43:16;2.03;;;0.43;;
13408;SDS011;6775;49.574;11.170;2023-04-01T08:45:56;0.43;;;0.30;;
13408;SDS011;6775;49.574;11.170;2023-04-01T08:48:43;0.43;;;0.23;;
13408;SDS011;6775;49.574;11.170;2023-04-01T08:54:42;0.83;;;0.47;;
13408;SDS011;6775;49.574;11.170;2023-04-01T08:57:34;1.20;;;0.37;;
13408;SDS011;6775;49.574;11.170;2023-04-01T09:00:21;1.70;;;0.37;;
13408;SDS011;6775;49.574;11.170;2023-04-01T09:03:15;1.43;;;0.50;;
13408;SDS011;6775;49.574;11.170;2023-04-01T09:06:07;0.30;;;0.30;;
13408;SDS011;6775;49.574;11.170;2023-04-01T09:08:59;0.70;;;0.37;;
13408;SDS011;6775;49.574;11.170;2023-04-01T09:11:41;0.60;;;0.40;;
13408;SDS011;6775;49.574;11.170;2023-04-01T09:14:23;0.30;;;0.20;;
13408;SDS011;6775;49.574;11.170;2023-04-01T09:23:09;0.83;;;0.47;;
13408;SDS011;6775;49.574;11.170;2023-04-01T09:25:51;0.57;;;0.40;;
13408;SDS011;6775;49.574;11.170;2023-04-01T09:28:28;0.83;;;0.50;;
13408;SDS011;6775;49.574;11.170;2023-04-01T09:31:20;0.30;;;0.30;;
13408;SDS011;6775;49.574;11.170;2023-04-01T09:34:09;0.90;;;0.40;;
13408;SDS011;6775;49.574;11.170;2023-04-01T09:37:01;0.77;;;0.30;;
13408;SDS011;6775;49.574;11.170;2023-04-01T09:39:47;2.20;;;0.47;;
13408;SDS011;6775;49.574;11.170;2023-04-01T09:42:41;0.80;;;0.40;;
13408;SDS011;6775;49.574;11.170;2023-04-01T09:45:16;0.20;;;0.20;;
13408;SDS011;6775;49.574;11.170;2023-04-01T09:48:00;1.70;;;0.50;;
13408;SDS011;6775;49.574;11.170;2023-04-01T09:50:42;1.33;;;0.40;;
13408;SDS011;6775;49.574;11.170;2023-04-01T09:53:20;1.73;;;0.60;;
13408;SDS011;6775;49.574;11.170;2023-04-01T09:56:07;1.47;;;0.60;;
13408;SDS011;6775;49.574;11.170;2023-04-01T10:01:56;0.60;;;0.43;;
13408;SDS011;6775;49.574;11.170;2023-04-01T10:08:18;0.73;;;0.40;;
13408;SDS011;6775;49.574;11.170;2023-04-01T10:11:14;0.40;;;0.30;;
13408;SDS011;6775;49.574;11.170;2023-04-01T10:20:01;0.60;;;0.50;;
13408;SDS011;6775;49.574;11.170;2023-04-01T10:22:49;0.30;;;0.30;;
13408;SDS011;6775;49.574;11.170;2023-04-01T10:28:52;0.43;;;0.33;;
13408;SDS011;6775;49.574;11.170;2023-04-01T10:31:51;0.37;;;0.30;;
13408;SDS011;6775;49.574;11.170;2023-04-01T10:37:59;0.63;;;0.40;;
13408;SDS011;6775;49.574;11.170;2023-04-01T10:44:03;1.10;;;0.70;;
13408;SDS011;6775;49.574;11.170;2023-04-01T10:47:00;0.60;;;0.40;;
13408;SDS011;6775;49.574;11.170;2023-04-01T10:50:01;1.03;;;0.70;;
13408;SDS011;6775;49.574;11.170;2023-04-01T10:56:01;0.50;;;0.50;;
13408;SDS011;6775;49.574;11.170;2023-04-01T10:59:03;0.53;;;0.47;;
13408;SDS011;6775;49.574;11.170;2023-04-01T11:02:19;1.47;;;0.30;;
13408;SDS011;6775;49.574;11.170;2023-04-01T11:11:43;0.40;;;0.40;;
13408;SDS011;6775;49.574;11.170;2023-04-01T11:14:39;0.87;;;0.40;;
13408;SDS011;6775;49.574;11.170;2023-04-01T11:20:45;0.47;;;0.47;;
13408;SDS011;6775;49.574;11.170;2023-04-01T11:23:50;1.37;;;0.53;;
13408;SDS011;6775;49.574;11.170;2023-04-01T11:26:36;1.33;;;0.60;;
13408;SDS011;6775;49.574;11.170;2023-04-01T11:29:31;0.73;;;0.40;;
13408;SDS011;6775;49.574;11.170;2023-04-01T11:32:28;1.30;;;0.33;;
13408;SDS011;6775;49.574;11.170;2023-04-01T11:35:13;0.80;;;0.50;;
13408;SDS011;6775;49.574;11.170;2023-04-01T11:37:54;0.37;;;0.37;;
13408;SDS011;6775;49.574;11.170;2023-04-01T11:40:34;1.50;;;0.40;;
13408;SDS011;6775;49.574;11.170;2023-04-01T11:43:11;2.57;;;0.60;;
13408;SDS011;6775;49.574;11.170;2023-04-01T11:46:00;1.67;;;0.40;;
13408;SDS011;6775;49.574;11.170;2023-04-01T11:48:45;0.50;;;0.50;;
13408;SDS011;6775;49.574;11.170;2023-04-01T11:51:22;0.63;;;0.40;;
13408;SDS011;6775;49.574;11.170;2023-04-01T11:54:12;0.30;;;0.30;;
13408;SDS011;6775;49.574;11.170;2023-04-01T11:56:55;2.40;;;0.40;;
13408;SDS011;6775;49.574;11.170;2023-04-01T11:59:41;0.97;;;0.40;;
13408;SDS011;6775;49.574;11.170;2023-04-01T12:02:27;1.77;;;0.60;;
13408;SDS011;6775;49.574;11.170;2023-04-01T12:05:19;0.53;;;0.50;;
13408;SDS011;6775;49.574;11.170;2023-04-01T12:08:00;0.50;;;0.50;;
13408;SDS011;6775;49.574;11.170;2023-04-01T12:10:37;1.03;;;0.77;;
13408;SDS011;6775;49.574;11.170;2023-04-01T12:13:12;1.50;;;0.70;;
13408;SDS011;6775;49.574;11.170;2023-04-01T12:15:52;0.90;;;0.50;;
13408;SDS011;6775;49.574;11.170;2023-04-01T12:18:31;0.50;;;0.40;;
13408;SDS011;6775;49.574;11.170;2023-04-01T12:21:08;0.50;;;0.40;;
13408;SDS011;6775;49.574;11.170;2023-04-01T12:23:58;1.50;;;0.63;;
13408;SDS011;6775;49.574;11.170;2023-04-01T12:26:52;2.13;;;1.17;;
13408;SDS011;6775;49.574;11.170;2023-04-01T12:29:43;0.63;;;0.53;;
13408;SDS011;6775;49.574;11.170;2023-04-01T12:32:21;1.93;;;1.07;;
13408;SDS011;6775;49.574;11.170;2023-04-01T12:37:50;1.00;;;0.30;;
13408;SDS011;6775;49.574;11.170;2023-04-01T12:40:30;1.40;;;0.47;;
13408;SDS011;6775;49.574;11.170;2023-04-01T12:46:04;0.87;;;0.60;;
13408;SDS011;6775;49.574;11.170;2023-04-01T12:48:50;1.60;;;0.60;;
13408;SDS011;6775;49.574;11.170;2023-04-01T12:51:37;4.97;;;2.63;;
13408;SDS011;6775;49.574;11.170;2023-04-01T12:54:43;3.93;;;2.20;;
13408;SDS011;6775;49.574;11.170;2023-04-01T12:57:32;3.20;;;1.53;;
13408;SDS011;6775;49.574;11.170;2023-04-01T13:00:25;1.17;;;0.83;;
13408;SDS011;6775;49.574;11.170;2023-04-01T13:03:05;1.20;;;0.60;;
13408;SDS011;6775;49.574;11.170;2023-04-01T13:06:05;3.40;;;1.70;;
13408;SDS011;6775;49.574;11.170;2023-04-01T13:08:50;1.33;;;1.00;;
13408;SDS011;6775;49.574;11.170;2023-04-01T13:11:25;2.67;;;1.30;;
13408;SDS011;6775;49.574;11.170;2023-04-01T13:16:58;1.53;;;0.93;;
13408;SDS011;6775;49.574;11.170;2023-04-01T13:19:35;3.17;;;1.60;;
13408;SDS011;6775;49.574;11.170;2023-04-01T13:22:24;4.73;;;1.60;;
13408;SDS011;6775;49.574;11.170;2023-04-01T13:24:58;1.60;;;0.80;;
13408;SDS011;6775;49.574;11.170;2023-04-01T13:27:33;2.30;;;0.90;;
13408;SDS011;6775;49.574;11.170;2023-04-01T13:30:10;2.30;;;0.90;;
13408;SDS011;6775;49.574;11.170;2023-04-01T13:32:50;2.03;;;0.70;;
13408;SDS011;6775;49.574;11.170;2023-04-01T13:35:30;1.00;;;0.60;;
13408;SDS011;6775;49.574;11.170;2023-04-01T13:38:12;1.93;;;0.80;;
13408;SDS011;6775;49.574;11.170;2023-04-01T13:40:56;1.90;;;0.70;;
13408;SDS011;6775;49.574;11.170;2023-04-01T13:43:30;2.37;;;0.93;;
13408;SDS011;6775;49.574;11.170;2023-04-01T13:49:00;1.57;;;1.00;;
13408;SDS011;6775;49.574;11.170;2023-04-01T13:51:58;2.50;;;1.30;;
13408;SDS011;6775;49.574;11.170;2023-04-01T13:54:53;2.70;;;1.43;;
13408;SDS011;6775;49.574;11.170;2023-04-01T13:57:51;2.00;;;0.80;;
13408;SDS011;6775;49.574;11.170;2023-04-01T14:03:38;0.90;;;0.70;;
13408;SDS011;6775;49.574;11.170;2023-04-01T14:06:28;0.53;;;0.53;;
13408;SDS011;6775;49.574;11.170;2023-04-01T14:09:06;1.37;;;0.80;;
13408;SDS011;6775;49.574;11.170;2023-04-01T14:11:53;0.60;;;0.60;;
13408;SDS011;6775;49.574;11.170;2023-04-01T14:14:33;0.70;;;0.60;;
13408;SDS011;6775;49.574;11.170;2023-04-01T14:17:16;1.87;;;1.10;;
13408;SDS011;6775;49.574;11.170;2023-04-01T14:20:07;1.57;;;0.57;;
13408;SDS011;6775;49.574;11.170;2023-04-01T14:22:53;1.80;;;1.30;;
13408;SDS011;6775;49.574;11.170;2023-04-01T14:25:39;1.73;;;0.97;;
13408;SDS011;6775;49.574;11.170;2023-04-01T14:28:20;1.27;;;1.00;;
13408;SDS011;6775;49.574;11.170;2023-04-01T14:31:03;1.37;;;1.10;;
13408;SDS011;6775;49.574;11.170;2023-04-01T14:33:53;0.73;;;0.73;;
13408;SDS011;6775;49.574;11.170;2023-04-01T14:42:33;1.77;;;1.30;;
13408;SDS011;6775;49.574;11.170;2023-04-01T14:45:17;1.10;;;0.80;;
13408;SDS011;6775;49.574;11.170;2023-04-01T14:47:58;1.37;;;0.83;;
13408;SDS011;6775;49.574;11.170;2023-04-01T14:50:40;1.50;;;1.00;;
13408;SDS011;6775;49.574;11.170;2023-04-01T14:53:11;1.23;;;1.13;;
13408;SDS011;6775;49.574;11.170;2023-04-01T14:55:51;2.53;;;1.70;;
13408;SDS011;6775;49.574;11.170;2023-04-01T14:58:21;1.30;;;0.93;;
13408;SDS011;6775;49.574;11.170;2023-04-01T15:00:54;0.70;;;0.70;;
13408;SDS011;6775;49.574;11.170;2023-04-01T15:03:36;0.70;;;0.70;;
13408;SDS011;6775;49.574;11.170;2023-04-01T15:06:13;1.30;;;0.93;;
13408;SDS011;6775;49.574;11.170;2023-04-01T15:09:07;0.60;;;0.57;;
13408;SDS011;6775;49.574;11.170;2023-04-01T15:11:46;0.90;;;0.70;;
13408;SDS011;6775;49.574;11.170;2023-04-01T15:14:21;0.80;;;0.70;;
13408;SDS011;6775;49.574;11.170;2023-04-01T15:17:06;1.37;;;0.60;;
13408;SDS011;6775;49.574;11.170;2023-04-01T15:20:10;1.17;;;0.90;;
13408;SDS011;6775;49.574;11.170;2023-04-01T15:23:02;1.00;;;0.90;;
13408;SDS011;6775;49.574;11.170;2023-04-01T15:25:47;0.90;;;0.73;;
13408;SDS011;6775;49.574;11.170;2023-04-01T15:28:29;1.30;;;1.03;;
13408;SDS011;6775;49.574;11.170;2023-04-01T15:31:04;1.23;;;0.70;;
13408;SDS011;6775;49.574;11.170;2023-04-01T15:36:35;1.30;;;1.00;;
13408;SDS011;6775;49.574;11.170;2023-04-01T15:39:13;1.60;;;1.00;;
13408;SDS011;6775;49.574;11.170;2023-04-01T15:41:45;1.13;;;0.87;;
13408;SDS011;6775;49.574;11.170;2023-04-01T15:47:27;0.80;;;0.70;;
13408;SDS011;6775;49.574;11.170;2023-04-01T15:50:24;2.00;;;0.80;;
13408;SDS011;6775;49.574;11.170;2023-04-01T15:53:05;1.37;;;1.00;;
13408;SDS011;6775;49.574;11.170;2023-04-01T15:55:42;1.13;;;0.97;;
13408;SDS011;6775;49.574;11.170;2023-04-01T15:58:22;0.70;;;0.60;;
13408;SDS011;6775;49.574;11.170;2023-04-01T16:01:04;0.60;;;0.60;;
13408;SDS011;6775;49.574;11.170;2023-04-01T16:03:44;0.60;;;0.40;;
13408;SDS011;6775;49.574;11.170;2023-04-01T16:09:34;1.53;;;0.97;;
13408;SDS011;6775;49.574;11.170;2023-04-01T16:12:13;0.90;;;0.77;;
13408;SDS011;6775;49.574;11.170;2023-04-01T16:14:49;3.70;;;2.40;;
13408;SDS011;6775;49.574;11.170;2023-04-01T16:20:25;1.07;;;0.70;;
13408;SDS011;6775;49.574;11.170;2023-04-01T16:23:11;1.10;;;0.70;;
13408;SDS011;6775;49.574;11.170;2023-04-01T16:25:49;0.83;;;0.70;;
13408;SDS011;6775;49.574;11.170;2023-04-01T16:28:23;1.20;;;1.00;;
13408;SDS011;6775;49.574;11.170;2023-04-01T16:30:58;1.40;;;0.90;;
13408;SDS011;6775;49.574;11.170;2023-04-01T16:33:34;2.13;;;1.50;;
13408;SDS011;6775;49.574;11.170;2023-04-01T16:36:09;4.63;;;1.87;;
13408;SDS011;6775;49.574;11.170;2023-04-01T16:38:49;2.87;;;1.50;;
13408;SDS011;6775;49.574;11.170;2023-04-01T16:41:25;1.60;;;1.33;;
13408;SDS011;6775;49.574;11.170;2023-04-01T16:43:59;2.50;;;2.00;;
13408;SDS011;6775;49.574;11.170;2023-04-01T16:46:40;1.33;;;1.20;;
13408;SDS011;6775;49.574;11.170;2023-04-01T16:49:16;1.60;;;1.13;;
13408;SDS011;6775;49.574;11.170;2023-04-01T16:51:52;0.90;;;0.90;;
13408;SDS011;6775;49.574;11.170;2023-04-01T16:54:28;2.00;;;0.80;;
13408;SDS011;6775;49.574;11.170;2023-04-01T16:57:09;3.40;;;1.67;;
13408;SDS011;6775;49.574;11.170;2023-04-01T16:59:45;0.90;;;0.80;;
13408;SDS011;6775;49.574;11.170;2023-04-01T17:02:21;1.23;;;0.90;;
13408;SDS011;6775;49.574;11.170;2023-04-01T17:04:57;2.03;;;1.20;;
13408;SDS011;6775;49.574;11.170;2023-04-01T17:07:30;1.17;;;0.87;;
13408;SDS011;6775;49.574;11.170;2023-04-01T17:10:14;1.73;;;0.80;;
13408;SDS011;6775;49.574;11.170;2023-04-01T17:13:09;1.30;;;1.00;;
13408;SDS011;6775;49.574;11.170;2023-04-01T17:15:46;1.07;;;0.83;;
13408;SDS011;6775;49.574;11.170;2023-04-01T17:18:23;2.10;;;1.60;;